sensor_id;sensor_type;location;lat;lon;timestamp;temperature;humidity
17341;DHT22;8788;49.930;8.660;2023-12-20T00:01:57;6.30;99.90
17341;DHT22;8788;49.930;8.660;2023-12-20T00:04:24;6.30;99.90
17341;DHT22;8788;49.930;8.660;2023-12-20T00:06:51;6.30;99.90
17341;DHT22;8788;49.930;8.660;2023-12-20T00:09:18;6.30;99.90
17341;DHT22;8788;49.930;8.660;2023-12-20T00:11:45;6.30;99.90
17341;DHT22;8788;49.930;8.660;2023-12-20T00:14:12;6.30;99.90
17341;DHT22;8788;49.930;8.660;2023-12-20T00:16:40;6.30;99.90
17341;DHT22;8788;49.930;8.660;2023-12-20T00:19:07;6.30;99.90
17341;DHT22;8788;49.930;8.660;2023-12-20T00:21:34;6.20;99.90
17341;DHT22;8788;49.930;8.660;2023-12-20T00:24:01;6.20;99.90
17341;DHT22;8788;49.930;8.660;2023-12-20T00:26:29;6.20;99.90
17341;DHT22;8788;49.930;8.660;2023-12-20T00:28:56;6.20;99.90
17341;DHT22;8788;49.930;8.660;2023-12-20T00:31:23;6.30;99.90
17341;DHT22;8788;49.930;8.660;2023-12-20T00:33:51;6.30;99.90
17341;DHT22;8788;49.930;8.660;2023-12-20T00:36:18;6.30;99.90
17341;DHT22;8788;49.930;8.660;2023-12-20T00:38:45;6.20;99.90
17341;DHT22;8788;49.930;8.660;2023-12-20T00:41:12;6.20;99.90
17341;DHT22;8788;49.930;8.660;2023-12-20T00:43:39;6.10;99.90
17341;DHT22;8788;49.930;8.660;2023-12-20T00:46:06;6.10;99.90
17341;DHT22;8788;49.930;8.660;2023-12-20T00:48:33;6.10;99.90
17341;DHT22;8788;49.930;8.660;2023-12-20T00:51:02;6.10;99.90
17341;DHT22;8788;49.930;8.660;2023-12-20T00:53:29;6.10;99.90
17341;DHT22;8788;49.930;8.660;2023-12-20T00:55:56;6.10;99.90
17341;DHT22;8788;49.930;8.660;2023-12-20T00:58:24;6.10;99.90
17341;DHT22;8788;49.930;8.660;2023-12-20T01:00:52;6.10;99.90
17341;DHT22;8788;49.930;8.660;2023-12-20T01:03:19;6.20;99.90
17341;DHT22;8788;49.930;8.660;2023-12-20T01:05:46;6.10;99.90
17341;DHT22;8788;49.930;8.660;2023-12-20T01:08:14;6.10;99.90
17341;DHT22;8788;49.930;8.660;2023-12-20T01:10:41;6.10;99.90
17341;DHT22;8788;49.930;8.660;2023-12-20T01:13:08;6.20;99.90
17341;DHT22;8788;49.930;8.660;2023-12-20T01:15:35;6.20;99.90
17341;DHT22;8788;49.930;8.660;2023-12-20T01:18:03;6.20;99.90
17341;DHT22;8788;49.930;8.660;2023-12-20T01:20:30;6.20;99.90
17341;DHT22;8788;49.930;8.660;2023-12-20T01:22:57;6.20;99.90
17341;DHT22;8788;49.930;8.660;2023-12-20T01:25:25;6.10;99.90
17341;DHT22;8788;49.930;8.660;2023-12-20T01:27:52;6.10;99.90
17341;DHT22;8788;49.930;8.660;2023-12-20T01:30:19;6.10;99.90
17341;DHT22;8788;49.930;8.660;2023-12-20T01:32:46;6.10;99.90
17341;DHT22;8788;49.930;8.660;2023-12-20T01:35:14;6.10;99.90
17341;DHT22;8788;49.930;8.660;2023-12-20T01:37:41;6.00;99.90
17341;DHT22;8788;49.930;8.660;2023-12-20T01:40:08;6.00;99.90
17341;DHT22;8788;49.930;8.660;2023-12-20T01:42:37;6.10;99.90
17341;DHT22;8788;49.930;8.660;2023-12-20T01:45:05;6.10;99.90
17341;DHT22;8788;49.930;8.660;2023-12-20T01:47:32;6.10;99.90
17341;DHT22;8788;49.930;8.660;2023-12-20T01:49:59;6.10;99.90
17341;DHT22;8788;49.930;8.660;2023-12-20T01:52:29;6.10;99.90
17341;DHT22;8788;49.930;8.660;2023-12-20T01:54:57;6.10;99.90
17341;DHT22;8788;49.930;8.660;2023-12-20T01:57:28;6.10;99.90
17341;DHT22;8788;49.930;8.660;2023-12-20T01:59:57;6.10;99.90
17341;DHT22;8788;49.930;8.660;2023-12-20T02:02:26;6.00;99.90
17341;DHT22;8788;49.930;8.660;2023-12-20T02:04:54;6.00;99.90
17341;DHT22;8788;49.930;8.660;2023-12-20T02:07:21;6.00;99.90
17341;DHT22;8788;49.930;8.660;2023-12-20T02:09:49;6.00;99.90
17341;DHT22;8788;49.930;8.660;2023-12-20T02:12:16;6.00;99.90
17341;DHT22;8788;49.930;8.660;2023-12-20T02:14:44;6.00;99.90
17341;DHT22;8788;49.930;8.660;2023-12-20T02:17:12;6.00;99.90
17341;DHT22;8788;49.930;8.660;2023-12-20T02:19:39;6.00;99.90
17341;DHT22;8788;49.930;8.660;2023-12-20T02:22:09;6.00;99.90
17341;DHT22;8788;49.930;8.660;2023-12-20T02:24:36;6.00;99.90
17341;DHT22;8788;49.930;8.660;2023-12-20T02:27:03;6.00;99.90
17341;DHT22;8788;49.930;8.660;2023-12-20T02:29:32;6.00;99.90
17341;DHT22;8788;49.930;8.660;2023-12-20T02:31:59;5.90;99.90
17341;DHT22;8788;49.930;8.660;2023-12-20T02:34:27;5.90;99.90
17341;DHT22;8788;49.930;8.660;2023-12-20T02:36:54;6.00;99.90
17341;DHT22;8788;49.930;8.660;2023-12-20T02:39:22;6.00;99.90
17341;DHT22;8788;49.930;8.660;2023-12-20T02:41:49;6.10;99.90
17341;DHT22;8788;49.930;8.660;2023-12-20T02:44:16;6.00;99.90
17341;DHT22;8788;49.930;8.660;2023-12-20T02:46:43;6.10;99.90
17341;DHT22;8788;49.930;8.660;2023-12-20T02:49:10;6.10;99.90
17341;DHT22;8788;49.930;8.660;2023-12-20T02:51:37;6.00;99.90
17341;DHT22;8788;49.930;8.660;2023-12-20T02:54:04;6.00;99.90
17341;DHT22;8788;49.930;8.660;2023-12-20T02:56:32;6.00;99.90
17341;DHT22;8788;49.930;8.660;2023-12-20T02:59:00;6.10;99.90
17341;DHT22;8788;49.930;8.660;2023-12-20T03:01:27;6.10;99.90
17341;DHT22;8788;49.930;8.660;2023-12-20T03:03:54;6.00;99.90
17341;DHT22;8788;49.930;8.660;2023-12-20T03:06:21;6.10;99.90
17341;DHT22;8788;49.930;8.660;2023-12-20T03:08:48;6.10;99.90
17341;DHT22;8788;49.930;8.660;2023-12-20T03:11:16;6.10;99.90
17341;DHT22;8788;49.930;8.660;2023-12-20T03:13:44;6.10;99.90
17341;DHT22;8788;49.930;8.660;2023-12-20T03:16:11;6.10;99.90
17341;DHT22;8788;49.930;8.660;2023-12-20T03:18:39;6.10;99.90
17341;DHT22;8788;49.930;8.660;2023-12-20T03:21:06;6.10;99.90
17341;DHT22;8788;49.930;8.660;2023-12-20T03:23:33;6.10;99.90
17341;DHT22;8788;49.930;8.660;2023-12-20T03:26:00;6.10;99.90
17341;DHT22;8788;49.930;8.660;2023-12-20T03:28:27;6.10;99.90
17341;DHT22;8788;49.930;8.660;2023-12-20T03:30:56;6.00;99.90
17341;DHT22;8788;49.930;8.660;2023-12-20T03:33:23;6.00;99.90
17341;DHT22;8788;49.930;8.660;2023-12-20T03:35:50;6.00;99.90
17341;DHT22;8788;49.930;8.660;2023-12-20T03:38:17;6.10;99.90
17341;DHT22;8788;49.930;8.660;2023-12-20T03:40:44;6.10;99.90
17341;DHT22;8788;49.930;8.660;2023-12-20T03:43:11;6.10;99.90
17341;DHT22;8788;49.930;8.660;2023-12-20T03:45:38;6.10;99.90
17341;DHT22;8788;49.930;8.660;2023-12-20T03:48:07;6.10;99.90
17341;DHT22;8788;49.930;8.660;2023-12-20T03:50:34;6.10;99.90
17341;DHT22;8788;49.930;8.660;2023-12-20T03:53:02;6.20;99.90
17341;DHT22;8788;49.930;8.660;2023-12-20T03:55:29;6.30;99.90
17341;DHT22;8788;49.930;8.660;2023-12-20T03:57:56;6.30;99.90
17341;DHT22;8788;49.930;8.660;2023-12-20T04:00:23;6.30;99.90
17341;DHT22;8788;49.930;8.660;2023-12-20T04:02:50;6.40;99.90
17341;DHT22;8788;49.930;8.660;2023-12-20T04:05:19;6.40;99.90
17341;DHT22;8788;49.930;8.660;2023-12-20T04:07:46;6.50;99.90
17341;DHT22;8788;49.930;8.660;2023-12-20T04:10:14;6.50;99.90
17341;DHT22;8788;49.930;8.660;2023-12-20T04:12:41;6.50;99.90
17341;DHT22;8788;49.930;8.660;2023-12-20T04:15:08;6.40;99.90
17341;DHT22;8788;49.930;8.660;2023-12-20T04:17:37;6.40;99.90
17341;DHT22;8788;49.930;8.660;2023-12-20T04:20:05;6.40;99.90
17341;DHT22;8788;49.930;8.660;2023-12-20T04:22:34;6.40;99.90
17341;DHT22;8788;49.930;8.660;2023-12-20T04:25:01;6.40;99.90
17341;DHT22;8788;49.930;8.660;2023-12-20T04:27:28;6.40;99.90
17341;DHT22;8788;49.930;8.660;2023-12-20T04:29:55;6.30;99.90
17341;DHT22;8788;49.930;8.660;2023-12-20T04:32:23;6.40;99.90
17341;DHT22;8788;49.930;8.660;2023-12-20T04:34:50;6.40;99.90
17341;DHT22;8788;49.930;8.660;2023-12-20T04:37:17;6.40;99.90
17341;DHT22;8788;49.930;8.660;2023-12-20T04:39:45;6.40;99.90
17341;DHT22;8788;49.930;8.660;2023-12-20T04:42:12;6.40;99.90
17341;DHT22;8788;49.930;8.660;2023-12-20T04:44:39;6.50;99.90
17341;DHT22;8788;49.930;8.660;2023-12-20T04:47:06;6.50;99.90
17341;DHT22;8788;49.930;8.660;2023-12-20T04:49:33;6.50;99.90
17341;DHT22;8788;49.930;8.660;2023-12-20T04:52:00;6.50;99.90
17341;DHT22;8788;49.930;8.660;2023-12-20T04:54:27;6.60;99.90
17341;DHT22;8788;49.930;8.660;2023-12-20T04:56:56;6.60;99.90
17341;DHT22;8788;49.930;8.660;2023-12-20T04:59:23;6.70;99.90
17341;DHT22;8788;49.930;8.660;2023-12-20T05:01:50;6.70;99.90
17341;DHT22;8788;49.930;8.660;2023-12-20T05:04:17;6.70;99.90
17341;DHT22;8788;49.930;8.660;2023-12-20T05:06:44;6.80;99.90
17341;DHT22;8788;49.930;8.660;2023-12-20T05:09:11;6.80;99.90
17341;DHT22;8788;49.930;8.660;2023-12-20T05:11:38;6.80;99.90
17341;DHT22;8788;49.930;8.660;2023-12-20T05:14:06;6.70;99.90
17341;DHT22;8788;49.930;8.660;2023-12-20T05:16:34;6.70;99.90
17341;DHT22;8788;49.930;8.660;2023-12-20T05:19:01;6.70;99.90
17341;DHT22;8788;49.930;8.660;2023-12-20T05:21:32;6.70;99.90
17341;DHT22;8788;49.930;8.660;2023-12-20T05:23:59;6.70;99.90
17341;DHT22;8788;49.930;8.660;2023-12-20T05:26:26;6.70;99.90
17341;DHT22;8788;49.930;8.660;2023-12-20T05:28:55;6.70;99.90
17341;DHT22;8788;49.930;8.660;2023-12-20T05:31:23;6.70;99.90
17341;DHT22;8788;49.930;8.660;2023-12-20T05:33:50;6.70;99.90
17341;DHT22;8788;49.930;8.660;2023-12-20T05:36:18;6.70;99.90
17341;DHT22;8788;49.930;8.660;2023-12-20T05:38:45;6.70;99.90
17341;DHT22;8788;49.930;8.660;2023-12-20T05:41:12;6.70;99.90
17341;DHT22;8788;49.930;8.660;2023-12-20T05:43:39;6.70;99.90
17341;DHT22;8788;49.930;8.660;2023-12-20T05:46:06;6.60;99.90
17341;DHT22;8788;49.930;8.660;2023-12-20T05:48:35;6.60;99.90
17341;DHT22;8788;49.930;8.660;2023-12-20T05:51:02;6.50;99.90
17341;DHT22;8788;49.930;8.660;2023-12-20T05:53:29;6.50;99.90
17341;DHT22;8788;49.930;8.660;2023-12-20T05:55:56;6.40;99.90
17341;DHT22;8788;49.930;8.660;2023-12-20T05:58:23;6.40;99.90
17341;DHT22;8788;49.930;8.660;2023-12-20T06:00:50;6.40;99.90
17341;DHT22;8788;49.930;8.660;2023-12-20T06:03:17;6.40;99.90
17341;DHT22;8788;49.930;8.660;2023-12-20T06:05:46;6.40;99.90
17341;DHT22;8788;49.930;8.660;2023-12-20T06:08:13;6.40;99.90
17341;DHT22;8788;49.930;8.660;2023-12-20T06:10:40;6.40;99.90
17341;DHT22;8788;49.930;8.660;2023-12-20T06:13:07;6.40;99.90
17341;DHT22;8788;49.930;8.660;2023-12-20T06:15:34;6.40;99.90
17341;DHT22;8788;49.930;8.660;2023-12-20T06:18:01;6.40;99.90
17341;DHT22;8788;49.930;8.660;2023-12-20T06:20:29;6.40;99.90
17341;DHT22;8788;49.930;8.660;2023-12-20T06:22:57;6.40;99.90
17341;DHT22;8788;49.930;8.660;2023-12-20T06:25:24;6.40;99.90
17341;DHT22;8788;49.930;8.660;2023-12-20T06:27:51;6.40;99.90
17341;DHT22;8788;49.930;8.660;2023-12-20T06:30:18;6.40;99.90
17341;DHT22;8788;49.930;8.660;2023-12-20T06:32:45;6.30;99.90
17341;DHT22;8788;49.930;8.660;2023-12-20T06:35:13;6.30;99.90
17341;DHT22;8788;49.930;8.660;2023-12-20T06:37:40;6.30;99.90
17341;DHT22;8788;49.930;8.660;2023-12-20T06:40:10;6.30;99.90
17341;DHT22;8788;49.930;8.660;2023-12-20T06:42:37;6.30;99.90
17341;DHT22;8788;49.930;8.660;2023-12-20T06:45:05;6.20;99.90
17341;DHT22;8788;49.930;8.660;2023-12-20T06:47:32;6.10;99.90
17341;DHT22;8788;49.930;8.660;2023-12-20T06:49:59;6.00;99.90
17341;DHT22;8788;49.930;8.660;2023-12-20T06:52:26;5.90;99.90
17341;DHT22;8788;49.930;8.660;2023-12-20T06:54:53;5.90;99.90
17341;DHT22;8788;49.930;8.660;2023-12-20T06:57:22;5.90;99.90
17341;DHT22;8788;49.930;8.660;2023-12-20T06:59:49;5.90;99.90
17341;DHT22;8788;49.930;8.660;2023-12-20T07:02:17;5.90;99.90
17341;DHT22;8788;49.930;8.660;2023-12-20T07:04:44;5.90;99.90
17341;DHT22;8788;49.930;8.660;2023-12-20T07:07:12;5.90;99.90
17341;DHT22;8788;49.930;8.660;2023-12-20T07:09:39;5.90;99.90
17341;DHT22;8788;49.930;8.660;2023-12-20T07:12:08;5.80;99.90
17341;DHT22;8788;49.930;8.660;2023-12-20T07:14:36;5.80;99.90
17341;DHT22;8788;49.930;8.660;2023-12-20T07:17:03;5.80;99.90
17341;DHT22;8788;49.930;8.660;2023-12-20T07:19:30;5.80;99.90
17341;DHT22;8788;49.930;8.660;2023-12-20T07:21:58;5.80;99.90
17341;DHT22;8788;49.930;8.660;2023-12-20T07:24:25;5.80;99.90
17341;DHT22;8788;49.930;8.660;2023-12-20T07:26:52;5.80;99.90
17341;DHT22;8788;49.930;8.660;2023-12-20T07:29:19;5.80;99.90
17341;DHT22;8788;49.930;8.660;2023-12-20T07:31:47;5.80;99.90
17341;DHT22;8788;49.930;8.660;2023-12-20T07:34:14;5.90;99.90
17341;DHT22;8788;49.930;8.660;2023-12-20T07:36:41;5.90;99.90
17341;DHT22;8788;49.930;8.660;2023-12-20T07:39:09;6.00;99.90
17341;DHT22;8788;49.930;8.660;2023-12-20T07:41:36;6.00;99.90
17341;DHT22;8788;49.930;8.660;2023-12-20T07:44:04;6.10;99.90
17341;DHT22;8788;49.930;8.660;2023-12-20T07:46:32;6.10;99.90
17341;DHT22;8788;49.930;8.660;2023-12-20T07:49:00;6.10;99.90
17341;DHT22;8788;49.930;8.660;2023-12-20T07:51:27;6.10;99.90
17341;DHT22;8788;49.930;8.660;2023-12-20T07:53:54;6.00;99.90
17341;DHT22;8788;49.930;8.660;2023-12-20T07:56:21;6.00;99.90
17341;DHT22;8788;49.930;8.660;2023-12-20T07:58:48;6.00;99.90
17341;DHT22;8788;49.930;8.660;2023-12-20T08:01:16;6.10;99.90
17341;DHT22;8788;49.930;8.660;2023-12-20T08:03:43;6.20;99.90
17341;DHT22;8788;49.930;8.660;2023-12-20T08:06:11;6.20;99.90
17341;DHT22;8788;49.930;8.660;2023-12-20T08:08:38;6.30;99.90
17341;DHT22;8788;49.930;8.660;2023-12-20T08:11:05;6.30;99.90
17341;DHT22;8788;49.930;8.660;2023-12-20T08:13:32;6.40;99.90
17341;DHT22;8788;49.930;8.660;2023-12-20T08:15:59;6.40;99.90
17341;DHT22;8788;49.930;8.660;2023-12-20T08:18:28;6.40;99.90
17341;DHT22;8788;49.930;8.660;2023-12-20T08:20:55;6.40;99.90
17341;DHT22;8788;49.930;8.660;2023-12-20T08:23:24;6.40;99.90
17341;DHT22;8788;49.930;8.660;2023-12-20T08:25:51;6.40;99.90
17341;DHT22;8788;49.930;8.660;2023-12-20T08:28:18;6.40;99.90
17341;DHT22;8788;49.930;8.660;2023-12-20T08:30:45;6.50;99.90
17341;DHT22;8788;49.930;8.660;2023-12-20T08:33:12;6.50;99.90
17341;DHT22;8788;49.930;8.660;2023-12-20T08:35:39;6.60;99.90
17341;DHT22;8788;49.930;8.660;2023-12-20T08:38:06;6.60;99.90
17341;DHT22;8788;49.930;8.660;2023-12-20T08:40:35;6.60;99.90
17341;DHT22;8788;49.930;8.660;2023-12-20T08:43:02;6.60;99.90
17341;DHT22;8788;49.930;8.660;2023-12-20T08:45:29;6.60;99.90
17341;DHT22;8788;49.930;8.660;2023-12-20T08:47:56;6.50;99.90
17341;DHT22;8788;49.930;8.660;2023-12-20T08:50:23;6.50;99.90
17341;DHT22;8788;49.930;8.660;2023-12-20T08:52:50;6.50;99.90
17341;DHT22;8788;49.930;8.660;2023-12-20T08:55:18;6.50;99.90
17341;DHT22;8788;49.930;8.660;2023-12-20T08:57:47;6.60;99.90
17341;DHT22;8788;49.930;8.660;2023-12-20T09:00:15;6.60;99.90
17341;DHT22;8788;49.930;8.660;2023-12-20T09:02:42;6.60;99.90
17341;DHT22;8788;49.930;8.660;2023-12-20T09:05:09;6.70;99.90
17341;DHT22;8788;49.930;8.660;2023-12-20T09:07:36;6.70;99.90
17341;DHT22;8788;49.930;8.660;2023-12-20T09:10:04;6.60;99.90
17341;DHT22;8788;49.930;8.660;2023-12-20T09:12:31;6.60;99.90
17341;DHT22;8788;49.930;8.660;2023-12-20T09:14:59;6.60;99.90
17341;DHT22;8788;49.930;8.660;2023-12-20T09:17:28;6.50;99.90
17341;DHT22;8788;49.930;8.660;2023-12-20T09:19:55;6.60;99.90
17341;DHT22;8788;49.930;8.660;2023-12-20T09:22:22;6.60;99.90
17341;DHT22;8788;49.930;8.660;2023-12-20T09:24:49;6.70;99.90
17341;DHT22;8788;49.930;8.660;2023-12-20T09:27:16;6.70;99.90
17341;DHT22;8788;49.930;8.660;2023-12-20T09:29:43;6.70;99.90
17341;DHT22;8788;49.930;8.660;2023-12-20T09:32:12;6.80;99.90
17341;DHT22;8788;49.930;8.660;2023-12-20T09:34:39;6.80;99.90
17341;DHT22;8788;49.930;8.660;2023-12-20T09:37:07;6.80;99.90
17341;DHT22;8788;49.930;8.660;2023-12-20T09:39:34;6.80;99.90
17341;DHT22;8788;49.930;8.660;2023-12-20T09:42:03;6.80;99.90
17341;DHT22;8788;49.930;8.660;2023-12-20T09:44:31;6.90;99.90
17341;DHT22;8788;49.930;8.660;2023-12-20T09:46:58;6.80;99.90
17341;DHT22;8788;49.930;8.660;2023-12-20T09:49:30;6.90;99.90
17341;DHT22;8788;49.930;8.660;2023-12-20T09:51:57;6.90;99.90
17341;DHT22;8788;49.930;8.660;2023-12-20T09:54:28;6.90;99.90
17341;DHT22;8788;49.930;8.660;2023-12-20T09:56:56;6.90;99.90
17341;DHT22;8788;49.930;8.660;2023-12-20T09:59:23;6.90;99.90
17341;DHT22;8788;49.930;8.660;2023-12-20T10:01:51;6.90;99.90
17341;DHT22;8788;49.930;8.660;2023-12-20T10:04:19;7.00;99.90
17341;DHT22;8788;49.930;8.660;2023-12-20T10:06:47;7.10;99.90
17341;DHT22;8788;49.930;8.660;2023-12-20T10:09:14;7.20;99.90
17341;DHT22;8788;49.930;8.660;2023-12-20T10:11:41;7.20;99.90
17341;DHT22;8788;49.930;8.660;2023-12-20T10:14:10;7.20;99.90
17341;DHT22;8788;49.930;8.660;2023-12-20T10:16:38;7.30;99.90
17341;DHT22;8788;49.930;8.660;2023-12-20T10:19:05;7.30;99.90
17341;DHT22;8788;49.930;8.660;2023-12-20T10:21:32;7.40;99.90
17341;DHT22;8788;49.930;8.660;2023-12-20T10:24:00;7.50;99.90
17341;DHT22;8788;49.930;8.660;2023-12-20T10:26:28;7.60;99.90
17341;DHT22;8788;49.930;8.660;2023-12-20T10:28:56;7.60;99.90
17341;DHT22;8788;49.930;8.660;2023-12-20T10:31:27;7.70;99.90
17341;DHT22;8788;49.930;8.660;2023-12-20T10:33:56;7.70;99.90
17341;DHT22;8788;49.930;8.660;2023-12-20T10:36:25;7.70;99.90
17341;DHT22;8788;49.930;8.660;2023-12-20T10:38:54;7.70;99.90
17341;DHT22;8788;49.930;8.660;2023-12-20T10:41:25;7.80;99.90
17341;DHT22;8788;49.930;8.660;2023-12-20T10:43:56;7.80;99.90
17341;DHT22;8788;49.930;8.660;2023-12-20T10:46:24;7.80;99.90
17341;DHT22;8788;49.930;8.660;2023-12-20T10:48:54;7.80;99.90
17341;DHT22;8788;49.930;8.660;2023-12-20T10:51:23;7.80;99.90
17341;DHT22;8788;49.930;8.660;2023-12-20T10:53:53;7.80;99.90
17341;DHT22;8788;49.930;8.660;2023-12-20T10:56:20;7.90;99.90
17341;DHT22;8788;49.930;8.660;2023-12-20T10:58:50;7.90;99.90
17341;DHT22;8788;49.930;8.660;2023-12-20T11:01:18;7.90;99.90
17341;DHT22;8788;49.930;8.660;2023-12-20T11:03:49;8.00;99.90
17341;DHT22;8788;49.930;8.660;2023-12-20T11:06:27;8.00;99.90
17341;DHT22;8788;49.930;8.660;2023-12-20T11:09:03;8.00;99.90
17341;DHT22;8788;49.930;8.660;2023-12-20T11:11:39;8.00;99.90
17341;DHT22;8788;49.930;8.660;2023-12-20T11:14:16;7.90;99.90
17341;DHT22;8788;49.930;8.660;2023-12-20T11:16:46;7.90;99.90
17341;DHT22;8788;49.930;8.660;2023-12-20T11:19:13;7.90;99.90
17341;DHT22;8788;49.930;8.660;2023-12-20T11:21:41;7.90;99.90
17341;DHT22;8788;49.930;8.660;2023-12-20T11:24:08;7.90;99.90
17341;DHT22;8788;49.930;8.660;2023-12-20T11:26:36;7.90;99.90
17341;DHT22;8788;49.930;8.660;2023-12-20T11:29:34;7.90;99.90
17341;DHT22;8788;49.930;8.660;2023-12-20T11:32:03;7.90;99.90
17341;DHT22;8788;49.930;8.660;2023-12-20T11:34:32;7.90;99.90
17341;DHT22;8788;49.930;8.660;2023-12-20T11:37:00;7.90;99.90
17341;DHT22;8788;49.930;8.660;2023-12-20T11:39:27;7.90;99.90
17341;DHT22;8788;49.930;8.660;2023-12-20T11:41:56;7.90;99.90
17341;DHT22;8788;49.930;8.660;2023-12-20T11:44:25;8.00;99.90
17341;DHT22;8788;49.930;8.660;2023-12-20T11:46:55;7.90;99.90
17341;DHT22;8788;49.930;8.660;2023-12-20T11:49:25;8.00;99.90
17341;DHT22;8788;49.930;8.660;2023-12-20T11:51:52;8.00;99.90
17341;DHT22;8788;49.930;8.660;2023-12-20T11:54:19;7.90;99.90
17341;DHT22;8788;49.930;8.660;2023-12-20T11:56:46;7.90;99.90
17341;DHT22;8788;49.930;8.660;2023-12-20T11:59:14;8.00;99.90
17341;DHT22;8788;49.930;8.660;2023-12-20T12:01:48;8.10;99.90
17341;DHT22;8788;49.930;8.660;2023-12-20T12:04:17;8.20;99.90
17341;DHT22;8788;49.930;8.660;2023-12-20T12:06:45;8.20;99.90
17341;DHT22;8788;49.930;8.660;2023-12-20T12:09:12;8.10;99.90
17341;DHT22;8788;49.930;8.660;2023-12-20T12:11:41;8.00;99.90
17341;DHT22;8788;49.930;8.660;2023-12-20T12:14:08;8.00;99.90
17341;DHT22;8788;49.930;8.660;2023-12-20T12:16:35;7.90;99.90
17341;DHT22;8788;49.930;8.660;2023-12-20T12:19:02;7.90;99.90
17341;DHT22;8788;49.930;8.660;2023-12-20T12:21:31;8.00;99.90
17341;DHT22;8788;49.930;8.660;2023-12-20T12:24:07;8.00;99.90
17341;DHT22;8788;49.930;8.660;2023-12-20T12:26:34;8.10;99.90
17341;DHT22;8788;49.930;8.660;2023-12-20T12:29:01;8.10;99.90
17341;DHT22;8788;49.930;8.660;2023-12-20T12:31:28;8.20;99.90
17341;DHT22;8788;49.930;8.660;2023-12-20T12:33:56;8.30;99.90
17341;DHT22;8788;49.930;8.660;2023-12-20T12:36:23;8.40;99.90
17341;DHT22;8788;49.930;8.660;2023-12-20T12:38:51;8.60;99.90
17341;DHT22;8788;49.930;8.660;2023-12-20T12:41:18;8.60;99.90
17341;DHT22;8788;49.930;8.660;2023-12-20T12:43:46;8.70;99.90
17341;DHT22;8788;49.930;8.660;2023-12-20T12:46:13;8.80;99.90
17341;DHT22;8788;49.930;8.660;2023-12-20T12:48:40;8.90;99.90
17341;DHT22;8788;49.930;8.660;2023-12-20T12:51:07;8.90;99.90
17341;DHT22;8788;49.930;8.660;2023-12-20T12:53:38;8.90;99.90
17341;DHT22;8788;49.930;8.660;2023-12-20T12:56:07;8.80;99.90
17341;DHT22;8788;49.930;8.660;2023-12-20T12:58:34;8.90;99.90
17341;DHT22;8788;49.930;8.660;2023-12-20T13:01:01;8.80;99.90
17341;DHT22;8788;49.930;8.660;2023-12-20T13:03:29;8.80;99.90
17341;DHT22;8788;49.930;8.660;2023-12-20T13:05:56;8.70;99.90
17341;DHT22;8788;49.930;8.660;2023-12-20T13:08:23;8.60;99.90
17341;DHT22;8788;49.930;8.660;2023-12-20T13:10:50;8.50;99.90
17341;DHT22;8788;49.930;8.660;2023-12-20T13:13:18;8.40;99.90
17341;DHT22;8788;49.930;8.660;2023-12-20T13:15:45;8.40;99.90
17341;DHT22;8788;49.930;8.660;2023-12-20T13:18:17;8.30;99.90
17341;DHT22;8788;49.930;8.660;2023-12-20T13:20:44;8.30;99.90
17341;DHT22;8788;49.930;8.660;2023-12-20T13:23:11;8.30;99.90
17341;DHT22;8788;49.930;8.660;2023-12-20T13:25:39;8.30;99.90
17341;DHT22;8788;49.930;8.660;2023-12-20T13:28:07;8.30;99.90
17341;DHT22;8788;49.930;8.660;2023-12-20T13:30:36;8.30;99.90
17341;DHT22;8788;49.930;8.660;2023-12-20T13:33:04;8.30;99.90
17341;DHT22;8788;49.930;8.660;2023-12-20T13:35:32;8.30;99.90
17341;DHT22;8788;49.930;8.660;2023-12-20T13:37:59;8.40;99.90
17341;DHT22;8788;49.930;8.660;2023-12-20T13:40:26;8.30;99.90
17341;DHT22;8788;49.930;8.660;2023-12-20T13:42:54;8.40;99.90
17341;DHT22;8788;49.930;8.660;2023-12-20T13:45:21;8.30;99.90
17341;DHT22;8788;49.930;8.660;2023-12-20T13:47:50;8.40;99.90
17341;DHT22;8788;49.930;8.660;2023-12-20T13:50:17;8.40;99.90
17341;DHT22;8788;49.930;8.660;2023-12-20T13:52:44;8.40;99.90
17341;DHT22;8788;49.930;8.660;2023-12-20T13:55:12;8.50;99.90
17341;DHT22;8788;49.930;8.660;2023-12-20T13:57:39;8.50;99.90
17341;DHT22;8788;49.930;8.660;2023-12-20T14:00:08;8.80;99.90
17341;DHT22;8788;49.930;8.660;2023-12-20T14:02:40;9.60;99.90
17341;DHT22;8788;49.930;8.660;2023-12-20T14:05:09;9.30;99.90
17341;DHT22;8788;49.930;8.660;2023-12-20T14:07:37;9.10;99.90
17341;DHT22;8788;49.930;8.660;2023-12-20T14:10:04;8.80;99.90
17341;DHT22;8788;49.930;8.660;2023-12-20T14:12:32;8.70;99.90
17341;DHT22;8788;49.930;8.660;2023-12-20T14:15:02;8.60;99.90
17341;DHT22;8788;49.930;8.660;2023-12-20T14:17:29;8.60;99.90
17341;DHT22;8788;49.930;8.660;2023-12-20T14:19:57;8.50;99.90
17341;DHT22;8788;49.930;8.660;2023-12-20T14:22:25;8.50;99.90
17341;DHT22;8788;49.930;8.660;2023-12-20T14:24:55;8.50;99.90
17341;DHT22;8788;49.930;8.660;2023-12-20T14:27:22;8.50;99.90
17341;DHT22;8788;49.930;8.660;2023-12-20T14:29:50;8.40;99.90
17341;DHT22;8788;49.930;8.660;2023-12-20T14:32:17;8.40;99.90
17341;DHT22;8788;49.930;8.660;2023-12-20T14:34:44;8.40;99.90
17341;DHT22;8788;49.930;8.660;2023-12-20T14:37:11;8.50;99.90
17341;DHT22;8788;49.930;8.660;2023-12-20T14:39:39;8.40;99.90
17341;DHT22;8788;49.930;8.660;2023-12-20T14:42:07;8.50;99.90
17341;DHT22;8788;49.930;8.660;2023-12-20T14:44:37;8.50;99.90
17341;DHT22;8788;49.930;8.660;2023-12-20T14:47:05;8.40;99.90
17341;DHT22;8788;49.930;8.660;2023-12-20T14:49:32;8.40;99.90
17341;DHT22;8788;49.930;8.660;2023-12-20T14:51:59;8.50;99.90
17341;DHT22;8788;49.930;8.660;2023-12-20T14:54:26;8.50;99.90
17341;DHT22;8788;49.930;8.660;2023-12-20T14:56:54;8.60;99.90
17341;DHT22;8788;49.930;8.660;2023-12-20T14:59:21;8.60;99.90
17341;DHT22;8788;49.930;8.660;2023-12-20T15:01:48;8.60;99.90
17341;DHT22;8788;49.930;8.660;2023-12-20T15:04:16;8.50;99.90
17341;DHT22;8788;49.930;8.660;2023-12-20T15:06:43;8.40;99.90
17341;DHT22;8788;49.930;8.660;2023-12-20T15:09:10;8.40;99.90
17341;DHT22;8788;49.930;8.660;2023-12-20T15:11:37;8.40;99.90
17341;DHT22;8788;49.930;8.660;2023-12-20T15:14:06;8.30;99.90
17341;DHT22;8788;49.930;8.660;2023-12-20T15:16:33;8.30;99.90
17341;DHT22;8788;49.930;8.660;2023-12-20T15:19:01;8.30;99.90
17341;DHT22;8788;49.930;8.660;2023-12-20T15:21:29;8.30;99.90
17341;DHT22;8788;49.930;8.660;2023-12-20T15:23:58;8.20;99.90
17341;DHT22;8788;49.930;8.660;2023-12-20T15:26:38;8.20;99.90
17341;DHT22;8788;49.930;8.660;2023-12-20T15:29:06;8.20;99.90
17341;DHT22;8788;49.930;8.660;2023-12-20T15:31:34;8.20;99.90
17341;DHT22;8788;49.930;8.660;2023-12-20T15:34:03;8.20;99.90
17341;DHT22;8788;49.930;8.660;2023-12-20T15:36:30;8.20;99.90
17341;DHT22;8788;49.930;8.660;2023-12-20T15:38:57;8.20;99.90
17341;DHT22;8788;49.930;8.660;2023-12-20T15:41:24;8.20;99.90
17341;DHT22;8788;49.930;8.660;2023-12-20T15:43:51;8.10;99.90
17341;DHT22;8788;49.930;8.660;2023-12-20T15:46:19;8.10;99.90
17341;DHT22;8788;49.930;8.660;2023-12-20T15:48:46;8.10;99.90
17341;DHT22;8788;49.930;8.660;2023-12-20T15:51:14;8.10;99.90
17341;DHT22;8788;49.930;8.660;2023-12-20T15:53:43;8.10;99.90
17341;DHT22;8788;49.930;8.660;2023-12-20T15:56:10;8.00;99.90
17341;DHT22;8788;49.930;8.660;2023-12-20T15:58:37;8.00;99.90
17341;DHT22;8788;49.930;8.660;2023-12-20T16:01:05;7.90;99.90
17341;DHT22;8788;49.930;8.660;2023-12-20T16:03:33;7.90;99.90
17341;DHT22;8788;49.930;8.660;2023-12-20T16:06:00;8.00;99.90